Time;durP1;ratioP1;P1;durP2;ratioP2;P2;SDS_P1;SDS_P2;PMS_P1;PMS_P2;Temp;Humidity;BMP_temperature;BMP_pressure;BME280_temperature;BME280_humidity;BME280_pressure;Samples;Min_cycle;Max_cycle;Signal;HPM_P1;HPM_P2
2022/08/18 00:02:01;;;;;;;;;;;;;;;;;;5094946;28;20347;-90
2022/08/18 00:04:27;;;;;;;;;;;;;;;;;;5101716;28;19920;-91
2022/08/18 00:06:53;;;;;;;;;;;;;;;;;;5096280;28;19981;-88
2022/08/18 00:09:19;;;;;;;;;;;;;;;;;;5092217;28;19936;-89
2022/08/18 00:11:45;;;;;;;;;;;;;;;;;;5094196;28;19950;-89
2022/08/18 00:14:11;;;;;;;;;;;;;;;;;;5093075;28;19919;-88
2022/08/18 00:16:37;;;;;;;;;;;;;;;;;;5090062;28;19920;-87
2022/08/18 00:19:03;;;;;;;;;;;;;;;;;;5089830;28;19938;-78
2022/08/18 00:21:29;;;;;;;;;;;;;;;;;;5091234;28;19947;-75
2022/08/18 00:23:55;;;;;;;;;;;;;;;;;;5090887;28;20010;-76
2022/08/18 00:26:21;;;;;;;;;;;;;;;;;;5090658;28;19949;-75
2022/08/18 00:28:47;;;;;;;;;;;;;;;;;;5090980;28;19938;-76
2022/08/18 00:31:13;;;;;;;;;;;;;;;;;;5090840;28;19920;-76
2022/08/18 00:33:39;;;;;;;;;;;;;;;;;;5091397;28;19920;-75
2022/08/18 00:36:08;;;;;;;;;;;;;;;;;;5090475;28;19920;-75
2022/08/18 00:38:33;;;;;;;;;;;;;;;;;;5090763;28;20011;-75
2022/08/18 00:40:59;;;;;;;;;;;;;;;;;;5090935;28;19943;-74
2022/08/18 00:43:26;;;;;;;;;;;;;;;;;;5090208;28;20054;-74
2022/08/18 00:45:52;;;;;;;;;;;;;;;;;;5091201;28;19966;-74
2022/08/18 00:48:18;;;;;;;;;;;;;;;;;;5105595;28;19999;-73
2022/08/18 00:50:44;;;;;;;;;;;;;;;;;;5091116;28;19920;-73
2022/08/18 00:53:10;;;;;;;;;;;;;;;;;;5090265;28;19924;-72
2022/08/18 00:55:36;;;;;;;;;;;;;;;;;;5090517;28;19973;-74
2022/08/18 00:58:02;;;;;;;;;;;;;;;;;;5090482;28;19979;-73
2022/08/18 01:00:28;;;;;;;;;;;;;;;;;;5090109;28;19924;-73
2022/08/18 01:02:54;;;;;;;;;;;;;;;;;;5090717;28;19942;-73
2022/08/18 01:05:20;;;;;;;;;;;;;;;;;;5089971;28;19920;-73
2022/08/18 01:07:46;;;;;;;;;;;;;;;;;;5090357;28;19927;-73
2022/08/18 01:10:15;;;;;;;;;;;;;;;;;;5089960;28;19943;-72
2022/08/18 01:12:42;;;;;;;;;;;;;;;;;;5089150;28;19989;-72
2022/08/18 01:15:14;;;;;;;;;;;;;;;;;;5089923;28;19967;-72
2022/08/18 01:23:09;;;;;;;;;;;;;;;;;;5090485;28;20312;-72
2022/08/18 01:28:22;;;;;;;;;;;;;;;;;;5089875;28;19967;-72
2022/08/18 01:30:48;;;;;;;;;;;;;;;;;;5090186;28;19927;-72
2022/08/18 01:33:14;;;;;;;;;;;;;;;;;;5089584;28;19926;-73
2022/08/18 01:35:40;;;;;;;;;;;;;;;;;;5090149;28;19920;-72
2022/08/18 01:38:06;;;;;;;;;;;;;;;;;;5089883;28;19940;-71
2022/08/18 01:40:32;;;;;;;;;;;;;;;;;;5105186;28;19979;-71
2022/08/18 01:43:02;;;;;;;;;;;;;;;;;;5089950;28;20366;-72
2022/08/18 01:45:28;;;;;;;;;;;;;;;;;;5089450;28;19920;-71
2022/08/18 01:47:54;;;;;;;;;;;;;;;;;;5089722;28;20239;-71
2022/08/18 01:50:20;;;;;;;;;;;;;;;;;;5089499;28;19998;-71
2022/08/18 01:52:46;;;;;;;;;;;;;;;;;;5089814;28;19920;-71
2022/08/18 01:55:12;;;;;;;;;;;;;;;;;;5089656;28;19924;-71
2022/08/18 01:57:43;;;;;;;;;;;;;;;;;;5088988;28;19947;-71
2022/08/18 02:00:09;;;;;;;;;;;;;;;;;;5089563;28;19920;-71
2022/08/18 02:02:35;;;;;;;;;;;;;;;;;;5087546;28;20019;-71
2022/08/18 02:05:02;;;;;;;;;;;;;;;;;;5089634;28;20020;-70
2022/08/18 02:07:28;;;;;;;;;;;;;;;;;;5089064;28;19988;-71
2022/08/18 02:09:55;;;;;;;;;;;;;;;;;;5089337;28;19936;-70
2022/08/18 02:12:21;;;;;;;;;;;;;;;;;;5088776;28;19920;-71
2022/08/18 02:14:47;;;;;;;;;;;;;;;;;;5089134;28;19942;-71
2022/08/18 02:17:13;;;;;;;;;;;;;;;;;;5089086;28;19924;-71
2022/08/18 02:19:39;;;;;;;;;;;;;;;;;;5087221;28;19929;-71
2022/08/18 02:22:05;;;;;;;;;;;;;;;;;;5087866;28;20027;-70
2022/08/18 02:24:31;;;;;;;;;;;;;;;;;;5088557;28;19971;-71
2022/08/18 02:26:57;;;;;;;;;;;;;;;;;;5089007;28;20056;-70
2022/08/18 02:29:22;;;;;;;;;;;;;;;;;;5088464;28;20373;-71
2022/08/18 02:31:48;;;;;;;;;;;;;;;;;;5104071;28;20301;-70
2022/08/18 02:34:14;;;;;;;;;;;;;;;;;;5088987;28;19924;-70
2022/08/18 02:36:40;;;;;;;;;;;;;;;;;;5088154;28;19920;-71
2022/08/18 02:39:06;;;;;;;;;;;;;;;;;;5104227;28;19931;-70
2022/08/18 02:41:32;;;;;;;;;;;;;;;;;;5088174;28;19943;-71
2022/08/18 02:43:58;;;;;;;;;;;;;;;;;;5088460;28;20018;-71
2022/08/18 02:46:24;;;;;;;;;;;;;;;;;;5086881;28;20323;-71
2022/08/18 02:48:51;;;;;;;;;;;;;;;;;;5088618;28;19980;-70
2022/08/18 02:51:17;;;;;;;;;;;;;;;;;;5088683;28;20022;-70
2022/08/18 02:53:43;;;;;;;;;;;;;;;;;;5088127;28;19981;-70
2022/08/18 02:56:26;;;;;;;;;;;;;;;;;;5088195;28;19939;-71
2022/08/18 02:58:52;;;;;;;;;;;;;;;;;;5088355;28;19924;-70
2022/08/18 03:01:18;;;;;;;;;;;;;;;;;;5088486;28;19931;-70
2022/08/18 03:03:44;;;;;;;;;;;;;;;;;;5087912;28;19931;-70
2022/08/18 03:06:10;;;;;;;;;;;;;;;;;;5103640;28;19991;-70
2022/08/18 03:08:36;;;;;;;;;;;;;;;;;;5087758;28;19930;-70
2022/08/18 03:11:02;;;;;;;;;;;;;;;;;;5088342;28;20111;-70
2022/08/18 03:13:29;;;;;;;;;;;;;;;;;;5088038;28;19920;-71
2022/08/18 03:15:55;;;;;;;;;;;;;;;;;;5088448;28;20225;-71
2022/08/18 03:18:21;;;;;;;;;;;;;;;;;;5088514;28;19931;-71
2022/08/18 03:20:47;;;;;;;;;;;;;;;;;;5088020;28;20002;-71
2022/08/18 03:23:13;;;;;;;;;;;;;;;;;;5088320;28;19920;-72
2022/08/18 03:25:39;;;;;;;;;;;;;;;;;;5087680;28;20012;-71
2022/08/18 03:28:05;;;;;;;;;;;;;;;;;;5086710;28;20023;-71
2022/08/18 03:30:31;;;;;;;;;;;;;;;;;;5087665;28;19924;-71
2022/08/18 03:32:57;;;;;;;;;;;;;;;;;;5088276;28;20367;-72
2022/08/18 03:35:23;;;;;;;;;;;;;;;;;;5088214;28;19939;-71
2022/08/18 03:37:49;;;;;;;;;;;;;;;;;;5091495;28;19947;-71
2022/08/18 03:40:15;;;;;;;;;;;;;;;;;;5092183;28;20319;-71
2022/08/18 03:42:41;;;;;;;;;;;;;;;;;;5090604;28;19951;-71
2022/08/18 03:45:07;;;;;;;;;;;;;;;;;;5092177;28;19927;-71
2022/08/18 03:47:34;;;;;;;;;;;;;;;;;;5091709;28;19920;-72
2022/08/18 03:50:00;;;;;;;;;;;;;;;;;;5091962;28;19975;-71
2022/08/18 03:52:26;;;;;;;;;;;;;;;;;;5091698;28;19964;-71
2022/08/18 03:54:53;;;;;;;;;;;;;;;;;;5091374;28;20382;-71
2022/08/18 03:57:18;;;;;;;;;;;;;;;;;;5091372;28;20344;-71
2022/08/18 03:59:45;;;;;;;;;;;;;;;;;;5091266;28;19920;-71
2022/08/18 04:02:11;;;;;;;;;;;;;;;;;;5090454;28;20374;-71
2022/08/18 04:04:37;;;;;;;;;;;;;;;;;;5091235;28;19924;-71
2022/08/18 04:07:03;;;;;;;;;;;;;;;;;;5091743;28;19930;-71
2022/08/18 04:09:29;;;;;;;;;;;;;;;;;;5091441;28;20004;-71
2022/08/18 04:11:55;;;;;;;;;;;;;;;;;;5090902;28;19920;-71
2022/08/18 04:14:23;;;;;;;;;;;;;;;;;;5091432;28;20221;-71
2022/08/18 04:16:49;;;;;;;;;;;;;;;;;;5090821;28;19920;-71
2022/08/18 04:19:16;;;;;;;;;;;;;;;;;;5091358;28;19930;-72
2022/08/18 04:21:42;;;;;;;;;;;;;;;;;;5090775;28;19988;-71
2022/08/18 04:24:08;;;;;;;;;;;;;;;;;;5091076;28;20050;-71
2022/08/18 04:26:34;;;;;;;;;;;;;;;;;;5090626;28;19971;-71
2022/08/18 04:29:00;;;;;;;;;;;;;;;;;;5106606;28;20386;-71
2022/08/18 04:31:26;;;;;;;;;;;;;;;;;;5091202;28;20335;-70
2022/08/18 04:33:52;;;;;;;;;;;;;;;;;;5090579;28;19930;-70
2022/08/18 04:36:18;;;;;;;;;;;;;;;;;;5089063;28;19927;-72
2022/08/18 04:38:44;;;;;;;;;;;;;;;;;;5090362;28;19920;-72
2022/08/18 04:41:13;;;;;;;;;;;;;;;;;;5090070;28;20268;-73
2022/08/18 04:43:39;;;;;;;;;;;;;;;;;;5089892;28;19920;-74
2022/08/18 04:46:05;;;;;;;;;;;;;;;;;;5090065;28;19985;-73
2022/08/18 04:48:34;;;;;;;;;;;;;;;;;;5088709;28;19920;-73
2022/08/18 04:51:00;;;;;;;;;;;;;;;;;;5089630;28;19977;-72
2022/08/18 04:53:45;;;;;;;;;;;;;;;;;;5104578;28;19927;-72
2022/08/18 04:56:11;;;;;;;;;;;;;;;;;;5089279;28;20020;-72
2022/08/18 04:58:37;;;;;;;;;;;;;;;;;;5089001;28;19970;-72
2022/08/18 05:01:08;;;;;;;;;;;;;;;;;;5089134;28;20019;-71
2022/08/18 05:03:35;;;;;;;;;;;;;;;;;;5089311;28;19972;-72
2022/08/18 05:06:01;;;;;;;;;;;;;;;;;;5088961;28;19920;-72
2022/08/18 05:08:27;;;;;;;;;;;;;;;;;;5089684;28;19920;-72
2022/08/18 05:10:53;;;;;;;;;;;;;;;;;;5089086;28;20014;-73
2022/08/18 05:13:19;;;;;;;;;;;;;;;;;;5089490;28;19943;-73
2022/08/18 05:15:45;;;;;;;;;;;;;;;;;;5087452;28;19920;-75
2022/08/18 05:18:11;;;;;;;;;;;;;;;;;;5088798;28;19920;-74
2022/08/18 05:20:42;;;;;;;;;;;;;;;;;;5088837;28;19932;-74
2022/08/18 05:23:08;;;;;;;;;;;;;;;;;;5088936;28;20375;-73
2022/08/18 05:25:35;;;;;;;;;;;;;;;;;;5089035;28;19932;-72
2022/08/18 05:28:00;;;;;;;;;;;;;;;;;;5088209;28;20351;-71
2022/08/18 05:30:26;;;;;;;;;;;;;;;;;;5088745;28;19959;-71
2022/08/18 05:32:54;;;;;;;;;;;;;;;;;;5087056;28;19931;-71
2022/08/18 05:35:20;;;;;;;;;;;;;;;;;;5088644;28;19963;-72
2022/08/18 05:37:46;;;;;;;;;;;;;;;;;;5088027;28;20319;-73
2022/08/18 05:40:12;;;;;;;;;;;;;;;;;;5088728;28;20006;-73
2022/08/18 05:42:38;;;;;;;;;;;;;;;;;;5088376;28;19920;-74
2022/08/18 05:45:04;;;;;;;;;;;;;;;;;;5088336;28;20036;-74
2022/08/18 05:47:30;;;;;;;;;;;;;;;;;;5086722;28;20014;-74
2022/08/18 05:49:56;;;;;;;;;;;;;;;;;;5087817;28;20010;-76
2022/08/18 05:52:22;;;;;;;;;;;;;;;;;;5088145;28;20018;-80
2022/08/18 05:57:33;;;;;;;;;;;;;;;;;;5087745;28;19927;-80
2022/08/18 06:00:00;;;;;;;;;;;;;;;;;;5087047;28;19920;-80
2022/08/18 06:02:30;;;;;;;;;;;;;;;;;;5087922;28;20039;-80
2022/08/18 06:04:56;;;;;;;;;;;;;;;;;;5087330;28;19920;-80
2022/08/18 06:07:21;;;;;;;;;;;;;;;;;;5086381;28;20030;-81
2022/08/18 06:09:47;;;;;;;;;;;;;;;;;;5087431;28;20015;-80
2022/08/18 06:12:13;;;;;;;;;;;;;;;;;;5102848;28;19935;-81
2022/08/18 06:14:40;;;;;;;;;;;;;;;;;;5087533;28;19920;-80
2022/08/18 06:17:06;;;;;;;;;;;;;;;;;;5085615;28;20357;-79
2022/08/18 06:19:32;;;;;;;;;;;;;;;;;;5087841;28;20040;-81
2022/08/18 06:21:58;;;;;;;;;;;;;;;;;;5085883;28;19942;-80
2022/08/18 06:24:24;;;;;;;;;;;;;;;;;;5085651;28;20030;-79
2022/08/18 06:26:50;;;;;;;;;;;;;;;;;;5087204;28;19940;-80
2022/08/18 06:29:16;;;;;;;;;;;;;;;;;;5085672;28;20312;-70
2022/08/18 06:31:42;;;;;;;;;;;;;;;;;;5085936;28;20025;-71
2022/08/18 06:34:08;;;;;;;;;;;;;;;;;;5086996;28;20324;-70
2022/08/18 06:36:34;;;;;;;;;;;;;;;;;;5087230;28;19920;-70
2022/08/18 06:39:01;;;;;;;;;;;;;;;;;;5087183;28;19928;-70
2022/08/18 06:41:30;;;;;;;;;;;;;;;;;;5102706;28;20070;-71
2022/08/18 06:43:58;;;;;;;;;;;;;;;;;;5087210;28;20003;-71
2022/08/18 06:46:24;;;;;;;;;;;;;;;;;;5102773;28;20043;-70
2022/08/18 06:48:50;;;;;;;;;;;;;;;;;;5087723;28;19945;-69
2022/08/18 06:51:16;;;;;;;;;;;;;;;;;;5087848;28;20036;-71
2022/08/18 06:53:42;;;;;;;;;;;;;;;;;;5087661;28;20036;-69
2022/08/18 06:56:09;;;;;;;;;;;;;;;;;;5102632;28;19920;-68
2022/08/18 06:58:34;;;;;;;;;;;;;;;;;;5087624;28;19955;-68
2022/08/18 07:01:00;;;;;;;;;;;;;;;;;;5085395;28;19920;-67
2022/08/18 07:03:26;;;;;;;;;;;;;;;;;;5087789;28;19920;-69
2022/08/18 07:05:52;;;;;;;;;;;;;;;;;;5087434;28;19924;-72
2022/08/18 07:08:18;;;;;;;;;;;;;;;;;;5087387;28;20267;-69
2022/08/18 07:10:44;;;;;;;;;;;;;;;;;;5086862;28;20233;-70
2022/08/18 07:13:10;;;;;;;;;;;;;;;;;;5087615;28;20350;-71
2022/08/18 07:15:36;;;;;;;;;;;;;;;;;;5086265;28;19940;-70
2022/08/18 07:18:03;;;;;;;;;;;;;;;;;;5087377;28;19924;-71
2022/08/18 07:20:29;;;;;;;;;;;;;;;;;;5087494;28;19963;-70
2022/08/18 07:22:56;;;;;;;;;;;;;;;;;;5102083;28;19936;-71
2022/08/18 07:25:23;;;;;;;;;;;;;;;;;;5085916;28;19996;-70
2022/08/18 07:27:49;;;;;;;;;;;;;;;;;;5087485;28;20028;-70
2022/08/18 07:30:15;;;;;;;;;;;;;;;;;;5087410;28;20100;-68
2022/08/18 07:32:41;;;;;;;;;;;;;;;;;;5088200;28;19999;-68
2022/08/18 07:35:07;;;;;;;;;;;;;;;;;;5085956;28;20296;-67
2022/08/18 07:37:33;;;;;;;;;;;;;;;;;;5085732;28;20244;-68
2022/08/18 07:39:58;;;;;;;;;;;;;;;;;;5086754;28;19932;-70
2022/08/18 07:42:24;;;;;;;;;;;;;;;;;;5102190;28;19920;-69
2022/08/18 07:44:52;;;;;;;;;;;;;;;;;;5087277;28;19920;-68
2022/08/18 07:47:18;;;;;;;;;;;;;;;;;;5086976;28;20147;-68
2022/08/18 07:49:44;;;;;;;;;;;;;;;;;;5087374;28;19991;-67
2022/08/18 07:52:10;;;;;;;;;;;;;;;;;;5086617;28;19927;-69
2022/08/18 07:54:36;;;;;;;;;;;;;;;;;;5085660;28;19988;-67
2022/08/18 07:57:02;;;;;;;;;;;;;;;;;;5086575;28;19920;-64
2022/08/18 07:59:28;;;;;;;;;;;;;;;;;;5087477;28;19920;-67
2022/08/18 08:01:55;;;;;;;;;;;;;;;;;;5087915;28;20077;-68
2022/08/18 08:04:21;;;;;;;;;;;;;;;;;;5087395;28;19943;-68
2022/08/18 08:06:47;;;;;;;;;;;;;;;;;;5087125;28;20300;-69
2022/08/18 08:09:13;;;;;;;;;;;;;;;;;;5086384;28;19982;-70
2022/08/18 08:11:39;;;;;;;;;;;;;;;;;;5086728;28;20055;-67
2022/08/18 08:14:08;;;;;;;;;;;;;;;;;;5086787;28;19923;-68
2022/08/18 08:16:34;;;;;;;;;;;;;;;;;;5086961;28;19976;-68
2022/08/18 08:19:00;;;;;;;;;;;;;;;;;;5085857;28;20285;-68
2022/08/18 08:21:26;;;;;;;;;;;;;;;;;;5085155;28;19924;-68
2022/08/18 08:23:52;;;;;;;;;;;;;;;;;;5090180;28;19919;-68
2022/08/18 08:26:18;;;;;;;;;;;;;;;;;;5089840;28;20004;-68
2022/08/18 08:28:44;;;;;;;;;;;;;;;;;;5090269;28;20360;-68
2022/08/18 08:31:10;;;;;;;;;;;;;;;;;;5089913;28;20368;-68
2022/08/18 08:33:36;;;;;;;;;;;;;;;;;;5090028;28;20472;-69
2022/08/18 08:36:02;;;;;;;;;;;;;;;;;;5090326;28;19984;-68
2022/08/18 08:38:28;;;;;;;;;;;;;;;;;;5089670;28;19919;-69
2022/08/18 08:40:53;;;;;;;;;;;;;;;;;;5089994;28;19935;-68
2022/08/18 08:43:20;;;;;;;;;;;;;;;;;;5089753;28;19920;-69
2022/08/18 08:45:46;;;;;;;;;;;;;;;;;;5090303;28;19923;-68
2022/08/18 08:48:12;;;;;;;;;;;;;;;;;;5089864;28;20015;-69
2022/08/18 08:50:41;;;;;;;;;;;;;;;;;;5090194;28;19920;-68
2022/08/18 08:53:07;;;;;;;;;;;;;;;;;;5089656;28;20002;-69
2022/08/18 08:55:33;;;;;;;;;;;;;;;;;;5089880;28;20054;-69
2022/08/18 08:57:59;;;;;;;;;;;;;;;;;;5089749;28;19920;-71
2022/08/18 09:00:28;;;;;;;;;;;;;;;;;;5088071;28;19928;-71
2022/08/18 09:02:57;;;;;;;;;;;;;;;;;;5089631;28;19920;-71
2022/08/18 09:05:23;;;;;;;;;;;;;;;;;;5089048;28;20026;-71
2022/08/18 09:07:49;;;;;;;;;;;;;;;;;;5089119;28;20000;-72
2022/08/18 09:10:15;;;;;;;;;;;;;;;;;;5088807;28;20323;-72
2022/08/18 09:12:41;;;;;;;;;;;;;;;;;;5087775;28;19987;-70
2022/08/18 09:15:07;;;;;;;;;;;;;;;;;;5089097;28;20316;-71
2022/08/18 09:17:33;;;;;;;;;;;;;;;;;;5088558;28;19923;-72
2022/08/18 09:19:59;;;;;;;;;;;;;;;;;;5088963;28;20332;-76
2022/08/18 09:22:25;;;;;;;;;;;;;;;;;;5088492;28;19920;-76
2022/08/18 09:24:51;;;;;;;;;;;;;;;;;;5088729;28;19967;-75
2022/08/18 09:27:17;;;;;;;;;;;;;;;;;;5088377;28;19920;-74
2022/08/18 09:29:43;;;;;;;;;;;;;;;;;;5088928;28;20324;-75
2022/08/18 09:32:11;;;;;;;;;;;;;;;;;;5088612;28;19920;-71
2022/08/18 09:34:37;;;;;;;;;;;;;;;;;;5087832;28;20036;-75
2022/08/18 09:37:03;;;;;;;;;;;;;;;;;;5088729;28;19919;-74
2022/08/18 09:42:13;;;;;;;;;;;;;;;;;;5088298;28;19986;-73
2022/08/18 09:44:39;;;;;;;;;;;;;;;;;;5088352;28;19997;-74
2022/08/18 09:47:05;;;;;;;;;;;;;;;;;;5088573;28;19924;-73
2022/08/18 09:49:32;;;;;;;;;;;;;;;;;;5088068;28;20026;-74
2022/08/18 09:51:58;;;;;;;;;;;;;;;;;;5088438;28;19920;-75
2022/08/18 09:54:25;;;;;;;;;;;;;;;;;;5088360;28;19920;-75
2022/08/18 09:56:52;;;;;;;;;;;;;;;;;;5088885;28;20317;-73
2022/08/18 09:59:18;;;;;;;;;;;;;;;;;;5088072;28;19936;-76
2022/08/18 10:01:47;;;;;;;;;;;;;;;;;;5088500;28;19920;-75
2022/08/18 10:04:13;;;;;;;;;;;;;;;;;;5088052;28;20341;-75
2022/08/18 10:06:39;;;;;;;;;;;;;;;;;;5088288;28;20017;-77
2022/08/18 10:09:05;;;;;;;;;;;;;;;;;;5088371;28;19932;-75
2022/08/18 10:11:31;;;;;;;;;;;;;;;;;;5087836;28;20010;-81
2022/08/18 10:13:57;;;;;;;;;;;;;;;;;;5088096;28;19931;-77
2022/08/18 10:16:24;;;;;;;;;;;;;;;;;;5087622;28;20297;-79
2022/08/18 10:18:50;;;;;;;;;;;;;;;;;;5087816;28;20429;-82
2022/08/18 10:21:27;;;;;;;;;;;;;;;;;;5088357;28;20364;-81
2022/08/18 10:23:53;;;;;;;;;;;;;;;;;;5103235;28;19978;-82
2022/08/18 10:26:19;;;;;;;;;;;;;;;;;;5088480;28;19920;-79
2022/08/18 10:28:47;;;;;;;;;;;;;;;;;;5087926;28;19997;-81
2022/08/18 10:31:13;;;;;;;;;;;;;;;;;;5087897;28;19979;-76
2022/08/18 10:33:39;;;;;;;;;;;;;;;;;;5087371;28;19931;-77
2022/08/18 10:36:05;;;;;;;;;;;;;;;;;;5086187;28;19920;-74
2022/08/18 10:38:31;;;;;;;;;;;;;;;;;;5087017;28;20032;-86
2022/08/18 10:40:57;;;;;;;;;;;;;;;;;;5087989;28;19931;-86
2022/08/18 10:43:29;;;;;;;;;;;;;;;;;;5102884;28;19985;-84
2022/08/18 10:45:55;;;;;;;;;;;;;;;;;;5087898;28;19999;-85
2022/08/18 10:48:21;;;;;;;;;;;;;;;;;;5087544;28;20383;-84
2022/08/18 10:50:47;;;;;;;;;;;;;;;;;;5088222;28;20060;-85
2022/08/18 10:53:13;;;;;;;;;;;;;;;;;;5088307;28;19991;-85
2022/08/18 10:55:39;;;;;;;;;;;;;;;;;;5087596;28;19920;-85
2022/08/18 10:58:05;;;;;;;;;;;;;;;;;;5086547;28;19924;-83
2022/08/18 11:00:34;;;;;;;;;;;;;;;;;;5087272;28;20256;-75
2022/08/18 11:03:00;;;;;;;;;;;;;;;;;;5088160;28;19927;-82
2022/08/18 11:05:26;;;;;;;;;;;;;;;;;;5088045;28;20346;-82
2022/08/18 11:07:52;;;;;;;;;;;;;;;;;;5088321;28;19920;-82
2022/08/18 11:10:18;;;;;;;;;;;;;;;;;;5088239;28;19932;-79
2022/08/18 11:12:45;;;;;;;;;;;;;;;;;;5086342;28;19997;-80
2022/08/18 11:15:11;;;;;;;;;;;;;;;;;;5088058;28;19920;-80
2022/08/18 11:17:37;;;;;;;;;;;;;;;;;;5085905;28;19997;-83
2022/08/18 11:20:03;;;;;;;;;;;;;;;;;;5087443;28;19943;-79
2022/08/18 11:22:29;;;;;;;;;;;;;;;;;;5087047;28;19985;-84
2022/08/18 11:24:55;;;;;;;;;;;;;;;;;;5087484;28;19943;-79
2022/08/18 11:27:21;;;;;;;;;;;;;;;;;;5087273;28;19932;-76
2022/08/18 11:29:47;;;;;;;;;;;;;;;;;;5102196;28;19920;-75
2022/08/18 11:32:16;;;;;;;;;;;;;;;;;;5087446;28;19920;-77
2022/08/18 11:34:42;;;;;;;;;;;;;;;;;;5085690;28;19920;-78
2022/08/18 11:37:08;;;;;;;;;;;;;;;;;;5086457;28;20329;-84
2022/08/18 11:39:34;;;;;;;;;;;;;;;;;;5086722;28;20003;-86
2022/08/18 11:42:00;;;;;;;;;;;;;;;;;;5087594;28;20438;-87
2022/08/18 11:44:27;;;;;;;;;;;;;;;;;;5086996;28;19926;-80
2022/08/18 11:46:53;;;;;;;;;;;;;;;;;;5088725;28;19927;-82
2022/08/18 11:49:19;;;;;;;;;;;;;;;;;;5086449;28;19920;-83
2022/08/18 11:51:45;;;;;;;;;;;;;;;;;;5103130;28;20014;-82
2022/08/18 11:54:11;;;;;;;;;;;;;;;;;;5087917;28;19970;-77
2022/08/18 11:56:37;;;;;;;;;;;;;;;;;;5087817;28;19928;-81
2022/08/18 11:59:03;;;;;;;;;;;;;;;;;;5090772;28;19927;-84
2022/08/18 12:01:32;;;;;;;;;;;;;;;;;;5091989;28;19996;-81
2022/08/18 12:04:01;;;;;;;;;;;;;;;;;;5092182;28;19970;-76
2022/08/18 12:06:30;;;;;;;;;;;;;;;;;;5091738;28;19927;-79
2022/08/18 12:08:56;;;;;;;;;;;;;;;;;;5091556;28;20325;-68
2022/08/18 12:11:22;;;;;;;;;;;;;;;;;;5090126;28;20295;-73
2022/08/18 12:13:48;;;;;;;;;;;;;;;;;;5091324;28;19920;-68
2022/08/18 12:16:14;;;;;;;;;;;;;;;;;;5091570;28;20243;-73
2022/08/18 12:18:40;;;;;;;;;;;;;;;;;;5091459;28;19920;-71
2022/08/18 12:21:06;;;;;;;;;;;;;;;;;;5091605;28;19928;-72
2022/08/18 12:23:32;;;;;;;;;;;;;;;;;;5091141;28;20007;-73
2022/08/18 12:25:58;;;;;;;;;;;;;;;;;;5089602;28;20240;-73
2022/08/18 12:28:26;;;;;;;;;;;;;;;;;;5091257;28;19920;-70
2022/08/18 12:30:52;;;;;;;;;;;;;;;;;;5105953;28;19920;-69
2022/08/18 12:33:18;;;;;;;;;;;;;;;;;;5091270;28;19920;-70
2022/08/18 12:35:44;;;;;;;;;;;;;;;;;;5090853;28;19977;-71
2022/08/18 12:38:10;;;;;;;;;;;;;;;;;;5090841;28;20003;-71
2022/08/18 12:40:36;;;;;;;;;;;;;;;;;;5090434;28;20286;-71
2022/08/18 12:43:02;;;;;;;;;;;;;;;;;;5091018;28;19935;-70
2022/08/18 12:45:29;;;;;;;;;;;;;;;;;;5090644;28;19920;-72
2022/08/18 12:47:55;;;;;;;;;;;;;;;;;;5090811;28;19934;-72
2022/08/18 12:50:21;;;;;;;;;;;;;;;;;;5091073;28;19920;-73
2022/08/18 12:52:47;;;;;;;;;;;;;;;;;;5090696;28;20332;-72
2022/08/18 12:55:13;;;;;;;;;;;;;;;;;;5091192;28;20371;-71
2022/08/18 12:57:39;;;;;;;;;;;;;;;;;;5091207;28;19920;-68
2022/08/18 13:00:07;;;;;;;;;;;;;;;;;;5091641;28;20081;-72
2022/08/18 13:02:33;;;;;;;;;;;;;;;;;;5089854;28;20023;-70
2022/08/18 13:04:59;;;;;;;;;;;;;;;;;;5090966;28;20336;-70
2022/08/18 13:07:25;;;;;;;;;;;;;;;;;;5091362;28;20268;-70
2022/08/18 13:09:51;;;;;;;;;;;;;;;;;;5089567;28;19982;-72
2022/08/18 13:12:18;;;;;;;;;;;;;;;;;;5091206;28;19920;-69
2022/08/18 13:14:44;;;;;;;;;;;;;;;;;;5091008;28;20040;-71
2022/08/18 13:17:10;;;;;;;;;;;;;;;;;;5089069;28;19925;-72
2022/08/18 13:19:36;;;;;;;;;;;;;;;;;;5089476;28;20007;-71
2022/08/18 13:22:02;;;;;;;;;;;;;;;;;;5105626;28;19939;-71
2022/08/18 13:24:28;;;;;;;;;;;;;;;;;;5090953;28;19920;-71
2022/08/18 13:26:55;;;;;;;;;;;;;;;;;;5090341;28;19920;-69
2022/08/18 13:29:20;;;;;;;;;;;;;;;;;;5090610;28;19972;-71
2022/08/18 13:31:46;;;;;;;;;;;;;;;;;;5090073;28;20289;-73
2022/08/18 13:34:13;;;;;;;;;;;;;;;;;;5090375;28;19999;-72
2022/08/18 13:36:44;;;;;;;;;;;;;;;;;;5089577;28;19939;-70
2022/08/18 13:39:10;;;;;;;;;;;;;;;;;;5090123;28;19963;-70
2022/08/18 13:41:36;;;;;;;;;;;;;;;;;;5090326;28;19920;-70
2022/08/18 13:44:03;;;;;;;;;;;;;;;;;;5089344;28;19981;-70
2022/08/18 13:46:29;;;;;;;;;;;;;;;;;;5089486;28;19965;-68
2022/08/18 13:49:01;;;;;;;;;;;;;;;;;;5089510;28;19924;-71
2022/08/18 13:51:27;;;;;;;;;;;;;;;;;;5089952;28;20313;-71
2022/08/18 13:53:52;;;;;;;;;;;;;;;;;;5088154;28;20019;-72
2022/08/18 13:56:19;;;;;;;;;;;;;;;;;;5087763;28;20000;-71
2022/08/18 13:58:45;;;;;;;;;;;;;;;;;;5087530;28;19970;-71
2022/08/18 14:01:11;;;;;;;;;;;;;;;;;;5087750;28;19982;-71
2022/08/18 14:03:38;;;;;;;;;;;;;;;;;;5089375;28;20023;-70
2022/08/18 14:06:04;;;;;;;;;;;;;;;;;;5088754;28;20000;-71
2022/08/18 14:08:30;;;;;;;;;;;;;;;;;;5089238;28;20014;-73
2022/08/18 14:10:56;;;;;;;;;;;;;;;;;;5088232;28;19920;-68
2022/08/18 14:13:22;;;;;;;;;;;;;;;;;;5089050;28;19919;-69
2022/08/18 14:15:48;;;;;;;;;;;;;;;;;;5086759;28;20043;-71
2022/08/18 14:18:14;;;;;;;;;;;;;;;;;;5089012;28;19920;-70
2022/08/18 14:29:08;;;;;;;;;;;;;;;;;;5088120;28;19934;-71
2022/08/18 14:31:34;;;;;;;;;;;;;;;;;;5088916;28;19927;-70
2022/08/18 14:34:00;;;;;;;;;;;;;;;;;;5088664;28;19999;-71
2022/08/18 14:36:26;;;;;;;;;;;;;;;;;;5088602;28;19920;-69
2022/08/18 14:38:52;;;;;;;;;;;;;;;;;;5088405;28;20278;-70
2022/08/18 14:41:18;;;;;;;;;;;;;;;;;;5088856;28;20303;-69
2022/08/18 14:43:44;;;;;;;;;;;;;;;;;;5088579;28;19931;-71
2022/08/18 14:46:10;;;;;;;;;;;;;;;;;;5088121;28;19999;-69
2022/08/18 14:48:36;;;;;;;;;;;;;;;;;;5089135;28;20094;-69
2022/08/18 14:51:02;;;;;;;;;;;;;;;;;;5088022;28;19920;-69
2022/08/18 14:53:28;;;;;;;;;;;;;;;;;;5088763;28;19930;-69
2022/08/18 14:55:54;;;;;;;;;;;;;;;;;;5088254;28;19920;-69
2022/08/18 14:58:20;;;;;;;;;;;;;;;;;;5088357;28;19920;-70
2022/08/18 15:00:46;;;;;;;;;;;;;;;;;;5088887;28;19988;-69
2022/08/18 15:03:12;;;;;;;;;;;;;;;;;;5088418;28;19943;-69
2022/08/18 15:05:38;;;;;;;;;;;;;;;;;;5088418;28;19920;-69
2022/08/18 15:08:04;;;;;;;;;;;;;;;;;;5088060;28;20032;-69
2022/08/18 15:10:30;;;;;;;;;;;;;;;;;;5087874;28;20012;-70
2022/08/18 15:12:56;;;;;;;;;;;;;;;;;;5087272;28;19920;-70
2022/08/18 15:15:23;;;;;;;;;;;;;;;;;;5088140;28;20263;-69
2022/08/18 15:17:50;;;;;;;;;;;;;;;;;;5087582;28;20262;-69
2022/08/18 15:20:16;;;;;;;;;;;;;;;;;;5087688;28;19932;-70
2022/08/18 15:25:43;;;;;;;;;;;;;;;;;;5087984;28;20342;-78
2022/08/18 15:28:09;;;;;;;;;;;;;;;;;;5087202;28;20102;-69
2022/08/18 15:30:36;;;;;;;;;;;;;;;;;;5088444;28;20391;-70
2022/08/18 15:33:02;;;;;;;;;;;;;;;;;;5089926;28;19919;-71
2022/08/18 15:35:28;;;;;;;;;;;;;;;;;;5090795;28;20128;-70
2022/08/18 15:37:54;;;;;;;;;;;;;;;;;;5090271;28;19950;-70
2022/08/18 15:40:20;;;;;;;;;;;;;;;;;;5107278;28;20303;-69
2022/08/18 15:42:49;;;;;;;;;;;;;;;;;;5091780;28;19920;-68
2022/08/18 15:45:15;;;;;;;;;;;;;;;;;;5090678;28;20359;-70
2022/08/18 15:47:41;;;;;;;;;;;;;;;;;;5091218;28;19919;-71
2022/08/18 15:50:07;;;;;;;;;;;;;;;;;;5090393;28;20374;-69
2022/08/18 15:52:33;;;;;;;;;;;;;;;;;;5090920;28;19936;-69
2022/08/18 15:54:59;;;;;;;;;;;;;;;;;;5106051;28;19927;-71
2022/08/18 15:57:25;;;;;;;;;;;;;;;;;;5089235;28;19997;-70
2022/08/18 15:59:51;;;;;;;;;;;;;;;;;;5090816;28;20014;-71
2022/08/18 16:02:17;;;;;;;;;;;;;;;;;;5090241;28;19964;-71
2022/08/18 16:04:49;;;;;;;;;;;;;;;;;;5090493;28;19930;-71
2022/08/18 16:07:15;;;;;;;;;;;;;;;;;;5090120;28;19920;-71
2022/08/18 16:09:41;;;;;;;;;;;;;;;;;;5089159;28;20363;-71
2022/08/18 16:12:07;;;;;;;;;;;;;;;;;;5090413;28;19920;-71
2022/08/18 16:14:33;;;;;;;;;;;;;;;;;;5090582;28;20324;-71
2022/08/18 16:16:59;;;;;;;;;;;;;;;;;;5090534;28;20087;-71
2022/08/18 16:19:25;;;;;;;;;;;;;;;;;;5090173;28;19920;-74
2022/08/18 16:21:51;;;;;;;;;;;;;;;;;;5090420;28;20033;-71
2022/08/18 16:24:17;;;;;;;;;;;;;;;;;;5090040;28;20101;-72
2022/08/18 16:26:43;;;;;;;;;;;;;;;;;;5090573;28;19928;-69
2022/08/18 16:29:09;;;;;;;;;;;;;;;;;;5089745;28;19994;-72
2022/08/18 16:31:35;;;;;;;;;;;;;;;;;;5089834;28;19945;-71
2022/08/18 16:34:04;;;;;;;;;;;;;;;;;;5089642;28;20031;-73
2022/08/18 16:36:30;;;;;;;;;;;;;;;;;;5089433;28;20344;-70
2022/08/18 16:38:56;;;;;;;;;;;;;;;;;;5088781;28;20078;-71
2022/08/18 16:41:22;;;;;;;;;;;;;;;;;;5088262;28;19936;-71
2022/08/18 16:43:48;;;;;;;;;;;;;;;;;;5089539;28;19931;-70
2022/08/18 16:46:14;;;;;;;;;;;;;;;;;;5089411;28;20407;-71
2022/08/18 16:48:40;;;;;;;;;;;;;;;;;;5090026;28;19919;-71
2022/08/18 16:51:06;;;;;;;;;;;;;;;;;;5089207;28;19924;-71
2022/08/18 16:53:32;;;;;;;;;;;;;;;;;;5089979;28;19931;-71
2022/08/18 16:55:58;;;;;;;;;;;;;;;;;;5089873;28;20318;-71
2022/08/18 17:04:07;;;;;;;;;;;;;;;;;;5065717;28;20354;-69
2022/08/18 17:06:33;;;;;;;;;;;;;;;;;;5090344;28;20020;-70
2022/08/18 17:09:00;;;;;;;;;;;;;;;;;;5089784;28;20481;-70
2022/08/18 17:11:26;;;;;;;;;;;;;;;;;;5088259;28;19919;-71